Time;durP1;ratioP1;P1;durP2;ratioP2;P2;SDS_P1;SDS_P2;PMS_P1;PMS_P2;Temp;Humidity;BMP_temperature;BMP_pressure;BME280_temperature;BME280_humidity;BME280_pressure;Samples;Min_cycle;Max_cycle;Signal;HPM_P1;HPM_P2
2022/09/05 00:02:08;;;;;;;16.90;10.60;;;;;;;;;;4989937;28;20038;-61
2022/09/05 00:04:37;;;;;;;15.98;10.70;;;;;;;;;;5040137;28;20116;-62
2022/09/05 00:07:06;;;;;;;15.50;10.32;;;;;;;;;;5052312;28;20017;-62
2022/09/05 00:09:51;;;;;;;17.42;11.23;;;;;;;;;;5054157;28;20017;-61
2022/09/05 00:12:17;;;;;;;15.73;10.82;;;;;;;;;;5055379;28;20033;-61
2022/09/05 00:15:02;;;;;;;17.90;10.43;;;;;;;;;;5055418;28;20052;-61
2022/09/05 00:17:49;;;;;;;16.60;11.23;;;;;;;;;;5053717;28;20103;-60
2022/09/05 00:20:21;;;;;;;15.95;10.75;;;;;;;;;;5054988;28;20479;-60
2022/09/05 00:22:53;;;;;;;17.60;11.07;;;;;;;;;;5053880;28;20507;-62
2022/09/05 00:25:27;;;;;;;18.25;11.18;;;;;;;;;;5054927;28;20033;-62
2022/09/05 00:28:11;;;;;;;22.33;11.15;;;;;;;;;;5054711;28;20025;-59
2022/09/05 00:31:01;;;;;;;17.65;10.32;;;;;;;;;;5054968;28;20429;-62
2022/09/05 00:33:43;;;;;;;17.65;10.60;;;;;;;;;;5043370;28;20037;-58
2022/09/05 00:36:35;;;;;;;17.35;10.77;;;;;;;;;;5054989;28;20103;-61
2022/09/05 00:39:07;;;;;;;16.98;10.50;;;;;;;;;;5051928;28;20105;-55
2022/09/05 00:41:33;;;;;;;18.15;10.52;;;;;;;;;;5054809;28;20523;-61
2022/09/05 00:44:00;;;;;;;15.50;10.13;;;;;;;;;;5054909;28;20021;-61
2022/09/05 00:46:26;;;;;;;15.60;10.32;;;;;;;;;;5054843;28;20049;-59
2022/09/05 00:48:51;;;;;;;16.73;10.65;;;;;;;;;;5054330;28;20114;-60
2022/09/05 00:51:32;;;;;;;16.15;10.80;;;;;;;;;;5054481;28;20044;-61
2022/09/05 00:54:01;;;;;;;17.42;10.40;;;;;;;;;;5053356;28;20017;-61
2022/09/05 00:56:46;;;;;;;16.13;10.25;;;;;;;;;;5053392;28;20079;-58
2022/09/05 00:59:21;;;;;;;16.92;10.52;;;;;;;;;;5053162;28;20122;-61
2022/09/05 01:01:52;;;;;;;16.45;10.38;;;;;;;;;;5054502;28;20061;-61
2022/09/05 01:04:29;;;;;;;17.00;10.68;;;;;;;;;;5054486;28;20473;-60
2022/09/05 01:07:22;;;;;;;15.70;10.07;;;;;;;;;;5054580;28;20025;-58
2022/09/05 01:10:11;;;;;;;16.20;10.35;;;;;;;;;;5031438;28;20497;-60
2022/09/05 01:12:40;;;;;;;19.10;10.50;;;;;;;;;;5052948;28;20064;-60
2022/09/05 01:15:24;;;;;;;16.20;10.85;;;;;;;;;;5054417;28;20557;-61
2022/09/05 01:17:53;;;;;;;18.20;10.32;;;;;;;;;;5053788;28;20092;-61
2022/09/05 01:20:26;;;;;;;16.52;10.88;;;;;;;;;;5051955;28;20025;-61
2022/09/05 01:23:11;;;;;;;16.40;10.90;;;;;;;;;;5054195;28;20054;-61
2022/09/05 01:25:40;;;;;;;16.13;10.45;;;;;;;;;;5052648;28;20021;-61
2022/09/05 01:28:09;;;;;;;15.98;10.70;;;;;;;;;;5053842;28;20056;-60
2022/09/05 01:30:54;;;;;;;17.65;10.75;;;;;;;;;;5052615;28;20116;-61
2022/09/05 01:33:26;;;;;;;15.40;10.25;;;;;;;;;;5053973;28;20033;-57
2022/09/05 01:36:10;;;;;;;15.80;10.63;;;;;;;;;;5052860;28;20021;-60
2022/09/05 01:38:44;;;;;;;16.10;10.40;;;;;;;;;;5054093;28;20020;-60
2022/09/05 01:41:13;;;;;;;17.20;10.60;;;;;;;;;;5054351;28;20032;-60
2022/09/05 01:43:58;;;;;;;16.45;10.65;;;;;;;;;;5054039;28;20071;-60
2022/09/05 01:46:39;;;;;;;16.50;10.70;;;;;;;;;;5053887;28;20083;-60
2022/09/05 01:49:08;;;;;;;16.98;10.90;;;;;;;;;;5053280;28;20492;-61
2022/09/05 01:51:46;;;;;;;18.00;11.45;;;;;;;;;;5053121;28;20033;-61
2022/09/05 01:54:21;;;;;;;18.25;11.93;;;;;;;;;;5053610;28;20029;-62
2022/09/05 01:56:59;;;;;;;16.95;11.55;;;;;;;;;;5053437;28;20104;-61
2022/09/05 01:59:33;;;;;;;17.08;11.50;;;;;;;;;;5053439;28;20432;-61
2022/09/05 02:02:18;;;;;;;16.13;11.10;;;;;;;;;;5053417;28;20021;-59
2022/09/05 02:05:02;;;;;;;18.30;12.15;;;;;;;;;;5053380;28;20045;-62
2022/09/05 02:07:28;;;;;;;17.30;12.18;;;;;;;;;;5053295;28;20048;-61
2022/09/05 02:10:13;;;;;;;16.75;11.40;;;;;;;;;;5053408;28;20476;-60
2022/09/05 02:12:59;;;;;;;17.38;11.50;;;;;;;;;;5053325;28;20036;-61
2022/09/05 02:15:28;;;;;;;18.95;11.93;;;;;;;;;;5042752;28;20048;-61
2022/09/05 02:17:56;;;;;;;17.77;11.43;;;;;;;;;;5053053;28;20025;-62
2022/09/05 02:20:33;;;;;;;18.42;11.75;;;;;;;;;;5053207;28;20021;-60
2022/09/05 02:23:09;;;;;;;16.58;11.50;;;;;;;;;;5053123;28;20048;-62
2022/09/05 02:25:53;;;;;;;17.90;12.20;;;;;;;;;;5052825;28;20070;-62
2022/09/05 02:28:34;;;;;;;19.08;12.23;;;;;;;;;;5052712;28;20090;-61
2022/09/05 02:31:09;;;;;;;18.77;11.82;;;;;;;;;;5052454;28;20078;-62
2022/09/05 02:33:45;;;;;;;19.17;12.38;;;;;;;;;;5052700;28;20110;-62
2022/09/05 02:36:22;;;;;;;18.13;12.30;;;;;;;;;;5052350;28;20024;-63
2022/09/05 02:38:54;;;;;;;17.38;12.57;;;;;;;;;;5052413;28;20397;-60
2022/09/05 02:41:31;;;;;;;18.67;12.13;;;;;;;;;;5052623;28;20469;-62
2022/09/05 02:44:03;;;;;;;19.50;12.10;;;;;;;;;;5052582;28;20036;-63
2022/09/05 02:46:38;;;;;;;20.55;12.15;;;;;;;;;;5052628;28;20025;-61
2022/09/05 02:49:08;;;;;;;17.83;12.10;;;;;;;;;;5052141;28;20040;-62
2022/09/05 02:51:38;;;;;;;18.75;13.38;;;;;;;;;;5052356;28;20037;-62
2022/09/05 02:54:08;;;;;;;19.50;12.52;;;;;;;;;;5052472;28;20021;-60
2022/09/05 02:56:36;;;;;;;17.45;12.43;;;;;;;;;;5052240;28;20381;-61
2022/09/05 02:59:21;;;;;;;18.52;11.82;;;;;;;;;;5052143;28;20020;-54
2022/09/05 03:01:53;;;;;;;18.45;12.30;;;;;;;;;;5052368;28;20029;-60
2022/09/05 03:04:19;;;;;;;20.77;14.00;;;;;;;;;;5052181;28;20053;-60
2022/09/05 03:06:51;;;;;;;18.80;13.60;;;;;;;;;;5052084;28;20503;-58
2022/09/05 03:09:27;;;;;;;19.98;13.30;;;;;;;;;;5052059;28;20029;-58
2022/09/05 03:12:11;;;;;;;18.42;12.93;;;;;;;;;;5051990;28;20032;-62
2022/09/05 03:14:40;;;;;;;17.25;12.48;;;;;;;;;;5052092;28;20057;-62
2022/09/05 03:17:09;;;;;;;19.40;13.60;;;;;;;;;;5052248;28;20028;-62
2022/09/05 03:19:54;;;;;;;18.30;12.57;;;;;;;;;;5050727;28;20021;-60
2022/09/05 03:22:32;;;;;;;17.15;12.60;;;;;;;;;;5052479;28;20043;-60
2022/09/05 03:25:05;;;;;;;18.58;13.13;;;;;;;;;;5051845;28;20021;-61
2022/09/05 03:27:43;;;;;;;21.13;13.32;;;;;;;;;;5051585;28;20021;-62
2022/09/05 03:30:14;;;;;;;19.27;13.18;;;;;;;;;;5054070;28;20025;-61
2022/09/05 03:32:59;;;;;;;18.33;12.80;;;;;;;;;;5051772;28;20025;-61
2022/09/05 03:35:25;;;;;;;20.17;12.13;;;;;;;;;;5051702;28;20028;-59
2022/09/05 03:37:51;;;;;;;18.75;13.27;;;;;;;;;;5051616;28;20029;-61
2022/09/05 03:40:26;;;;;;;18.67;13.77;;;;;;;;;;5051493;28;20028;-60
2022/09/05 03:42:59;;;;;;;24.33;12.98;;;;;;;;;;5052688;28;20103;-59
2022/09/05 03:45:28;;;;;;;21.52;13.20;;;;;;;;;;5056176;28;20029;-59
2022/09/05 03:47:57;;;;;;;19.70;13.55;;;;;;;;;;5055770;28;20025;-61
2022/09/05 03:50:32;;;;;;;18.77;12.18;;;;;;;;;;5054422;28;20033;-59
2022/09/05 03:52:58;;;;;;;19.48;13.68;;;;;;;;;;5055757;28;20049;-62
2022/09/05 03:55:27;;;;;;;21.60;13.23;;;;;;;;;;5055823;28;20107;-62
2022/09/05 03:58:12;;;;;;;21.60;14.13;;;;;;;;;;5055618;28;20053;-61
2022/09/05 04:00:42;;;;;;;21.20;13.35;;;;;;;;;;5055714;28;20024;-61
2022/09/05 04:03:26;;;;;;;19.45;13.30;;;;;;;;;;5055801;28;20075;-60
2022/09/05 04:06:06;;;;;;;21.17;13.10;;;;;;;;;;5055609;28;20033;-62
2022/09/05 04:08:41;;;;;;;18.02;12.75;;;;;;;;;;5055448;28;20059;-61
2022/09/05 04:11:09;;;;;;;20.38;13.82;;;;;;;;;;5054261;28;20033;-58
2022/09/05 04:13:44;;;;;;;19.55;14.23;;;;;;;;;;5054378;28;20031;-62
2022/09/05 04:16:13;;;;;;;20.85;14.48;;;;;;;;;;5055551;28;20021;-59
2022/09/05 04:18:52;;;;;;;20.27;14.45;;;;;;;;;;5055206;28;20021;-63
2022/09/05 04:21:21;;;;;;;21.73;14.82;;;;;;;;;;5055622;28;20029;-61
2022/09/05 04:23:50;;;;;;;20.13;15.88;;;;;;;;;;5055164;28;20025;-59
2022/09/05 04:26:22;;;;;;;20.00;14.77;;;;;;;;;;5055270;28;20028;-59
2022/09/05 04:28:51;;;;;;;19.90;14.55;;;;;;;;;;5054946;28;20404;-61
2022/09/05 04:31:20;;;;;;;21.08;15.55;;;;;;;;;;5054963;28;20032;-61
2022/09/05 04:33:59;;;;;;;19.95;15.75;;;;;;;;;;5054879;28;20024;-60
2022/09/05 04:36:27;;;;;;;22.15;15.13;;;;;;;;;;5054816;28;20022;-59
2022/09/05 04:39:06;;;;;;;22.23;16.10;;;;;;;;;;5054699;28;20021;-60
2022/09/05 04:41:33;;;;;;;23.98;16.98;;;;;;;;;;5053424;28;20033;-62
2022/09/05 04:44:06;;;;;;;20.98;16.33;;;;;;;;;;5054669;28;20063;-61
2022/09/05 04:46:35;;;;;;;23.35;16.08;;;;;;;;;;5053424;28;20025;-59
2022/09/05 04:49:10;;;;;;;21.80;16.48;;;;;;;;;;5054463;28;20029;-55
2022/09/05 04:51:36;;;;;;;21.67;15.52;;;;;;;;;;5054255;28;20024;-59
2022/09/05 04:54:11;;;;;;;21.30;15.43;;;;;;;;;;5054558;28;20044;-61
2022/09/05 04:56:39;;;;;;;23.42;16.33;;;;;;;;;;5054565;28;20370;-62
2022/09/05 04:59:16;;;;;;;24.13;14.98;;;;;;;;;;5054549;28;20021;-62
2022/09/05 05:01:50;;;;;;;21.48;15.95;;;;;;;;;;5054435;28;20037;-62
2022/09/05 05:04:18;;;;;;;20.27;15.27;;;;;;;;;;5053306;28;20169;-60
2022/09/05 05:06:53;;;;;;;21.88;15.75;;;;;;;;;;5051846;28;20021;-59
2022/09/05 05:09:22;;;;;;;21.65;15.52;;;;;;;;;;5047663;28;20378;-62
2022/09/05 05:12:07;;;;;;;21.70;15.02;;;;;;;;;;5052662;28;20096;-62
2022/09/05 05:14:41;;;;;;;21.98;15.95;;;;;;;;;;5054317;28;20481;-59
2022/09/05 05:17:34;;;;;;;21.20;15.45;;;;;;;;;;5054419;28;20108;-61
2022/09/05 05:20:23;;;;;;;21.27;15.50;;;;;;;;;;5054423;28;20021;-60
2022/09/05 05:22:55;;;;;;;20.20;15.07;;;;;;;;;;5051302;28;20029;-62
2022/09/05 05:25:22;;;;;;;20.10;14.77;;;;;;;;;;5053048;28;20040;-61
2022/09/05 05:28:03;;;;;;;21.30;15.18;;;;;;;;;;5053989;28;20029;-61
2022/09/05 05:30:32;;;;;;;26.80;15.63;;;;;;;;;;5054011;28;20037;-60
2022/09/05 05:32:59;;;;;;;24.75;15.68;;;;;;;;;;5052757;28;20021;-63
2022/09/05 05:35:29;;;;;;;20.52;15.27;;;;;;;;;;5054233;28;20025;-62
2022/09/05 05:38:16;;;;;;;21.45;15.98;;;;;;;;;;5053425;28;20267;-59
2022/09/05 05:40:49;;;;;;;21.38;15.70;;;;;;;;;;5038916;28;20033;-61
2022/09/05 05:43:21;;;;;;;20.35;15.48;;;;;;;;;;5052394;28;20067;-60
2022/09/05 05:45:54;;;;;;;21.23;14.95;;;;;;;;;;5053882;28;20021;-60
2022/09/05 05:48:20;;;;;;;20.15;14.93;;;;;;;;;;5052495;28;20048;-59
2022/09/05 05:50:52;;;;;;;27.35;16.42;;;;;;;;;;5054683;28;20615;-64
2022/09/05 05:53:24;;;;;;;25.35;15.00;;;;;;;;;;5053395;28;20021;-64
2022/09/05 05:56:07;;;;;;;28.15;15.90;;;;;;;;;;5053773;28;20021;-64
2022/09/05 05:58:33;;;;;;;23.65;15.10;;;;;;;;;;5053505;28;20111;-64
2022/09/05 06:01:06;;;;;;;32.42;16.88;;;;;;;;;;5053394;28;20028;-64
2022/09/05 06:03:50;;;;;;;32.58;15.77;;;;;;;;;;5053581;28;20021;-64
2022/09/05 06:06:42;;;;;;;37.00;16.60;;;;;;;;;;5052461;28;20147;-65
2022/09/05 06:09:27;;;;;;;36.53;16.40;;;;;;;;;;5036971;28;20623;-65
2022/09/05 06:12:15;;;;;;;25.77;14.98;;;;;;;;;;5053004;28;20036;-65
2022/09/05 06:14:47;;;;;;;22.67;15.07;;;;;;;;;;5053279;28;20417;-64
2022/09/05 06:17:32;;;;;;;26.90;15.38;;;;;;;;;;5053064;28;20096;-64
2022/09/05 06:20:01;;;;;;;31.42;16.15;;;;;;;;;;5053110;28;20021;-65
2022/09/05 06:22:41;;;;;;;37.28;15.93;;;;;;;;;;5053219;28;20071;-62
2022/09/05 06:25:07;;;;;;;26.33;16.73;;;;;;;;;;5053209;28;20029;-62
2022/09/05 06:27:33;;;;;;;29.50;16.52;;;;;;;;;;5052766;28;20552;-64
2022/09/05 06:29:59;;;;;;;26.58;15.75;;;;;;;;;;5052795;28;20083;-61
2022/09/05 06:32:25;;;;;;;31.75;15.93;;;;;;;;;;5053206;28;20371;-62
2022/09/05 06:35:09;;;;;;;27.45;15.85;;;;;;;;;;5052898;28;20025;-62
2022/09/05 06:37:54;;;;;;;27.45;15.70;;;;;;;;;;5052317;28;20572;-61
2022/09/05 06:40:26;;;;;;;33.28;15.50;;;;;;;;;;5052636;28;20048;-61
2022/09/05 06:43:10;;;;;;;39.63;16.45;;;;;;;;;;5053015;28;20029;-63
2022/09/05 06:45:43;;;;;;;24.05;15.27;;;;;;;;;;5052927;28;20032;-63
2022/09/05 06:48:12;;;;;;;25.75;15.18;;;;;;;;;;5051245;28;20477;-63
2022/09/05 06:51:00;;;;;;;23.90;14.63;;;;;;;;;;5052573;28;20032;-62
2022/09/05 06:53:45;;;;;;;27.25;15.02;;;;;;;;;;5052690;28;20090;-63
2022/09/05 06:56:22;;;;;;;28.50;15.60;;;;;;;;;;5052742;28;20020;-65
2022/09/05 06:58:57;;;;;;;21.92;13.85;;;;;;;;;;5052216;28;20115;-63
2022/09/05 07:01:29;;;;;;;23.88;14.40;;;;;;;;;;5051270;28;20035;-63
2022/09/05 07:04:18;;;;;;;23.30;15.98;;;;;;;;;;5052743;28;20029;-63
2022/09/05 07:06:44;;;;;;;21.67;14.10;;;;;;;;;;5052126;28;20112;-63
2022/09/05 07:09:30;;;;;;;24.55;14.60;;;;;;;;;;5051792;28;20029;-63
2022/09/05 07:12:00;;;;;;;22.70;13.50;;;;;;;;;;5052186;28;20116;-63
2022/09/05 07:14:28;;;;;;;20.70;13.25;;;;;;;;;;5052021;28;20067;-63
2022/09/05 07:16:57;;;;;;;20.83;13.77;;;;;;;;;;5052201;28;20486;-61
2022/09/05 07:19:26;;;;;;;19.35;12.82;;;;;;;;;;5052153;28;20029;-65
2022/09/05 07:22:12;;;;;;;20.25;14.10;;;;;;;;;;5052036;28;20028;-64
2022/09/05 07:24:42;;;;;;;20.00;13.25;;;;;;;;;;5051937;28;20119;-64
2022/09/05 07:27:09;;;;;;;18.75;12.98;;;;;;;;;;5052422;28;20115;-62
2022/09/05 07:29:37;;;;;;;19.42;13.70;;;;;;;;;;5052002;28;20029;-63
2022/09/05 07:32:06;;;;;;;19.08;12.93;;;;;;;;;;5050788;28;20029;-64
2022/09/05 07:34:33;;;;;;;17.85;12.75;;;;;;;;;;5052069;28;20021;-64
2022/09/05 07:37:04;;;;;;;19.45;14.30;;;;;;;;;;5052312;28;20024;-65
2022/09/05 07:39:33;;;;;;;18.08;12.75;;;;;;;;;;5051821;28;20052;-64
2022/09/05 07:42:04;;;;;;;18.65;12.90;;;;;;;;;;5052276;28;20104;-65
2022/09/05 07:44:39;;;;;;;17.58;11.90;;;;;;;;;;5052000;28;20044;-64
2022/09/05 07:47:08;;;;;;;17.67;12.63;;;;;;;;;;5052004;28;20784;-65
2022/09/05 07:49:35;;;;;;;17.85;12.27;;;;;;;;;;5051807;28;20489;-65
2022/09/05 07:52:08;;;;;;;19.38;12.68;;;;;;;;;;5051829;28;20496;-67
2022/09/05 07:54:35;;;;;;;17.70;12.70;;;;;;;;;;5052240;28;20029;-65
2022/09/05 07:57:08;;;;;;;17.88;12.02;;;;;;;;;;5052168;28;20029;-65
2022/09/05 07:59:35;;;;;;;20.08;12.98;;;;;;;;;;5052001;28;20025;-65
2022/09/05 08:02:01;;;;;;;18.98;13.15;;;;;;;;;;5051854;28;20397;-65
2022/09/05 08:04:27;;;;;;;19.85;14.15;;;;;;;;;;5051946;28;20029;-64
2022/09/05 08:06:56;;;;;;;20.35;14.00;;;;;;;;;;5051791;28;20493;-66
2022/09/05 08:09:25;;;;;;;51.90;19.58;;;;;;;;;;5051397;28;20044;-64
2022/09/05 08:11:53;;;;;;;22.40;13.45;;;;;;;;;;5051672;28;20116;-65
2022/09/05 08:14:38;;;;;;;18.05;12.70;;;;;;;;;;5050773;28;20022;-63
2022/09/05 08:17:10;;;;;;;16.90;12.43;;;;;;;;;;5051772;28;20021;-65
2022/09/05 08:19:54;;;;;;;21.63;15.48;;;;;;;;;;5051764;28;20028;-64
2022/09/05 08:22:22;;;;;;;22.25;12.23;;;;;;;;;;5049236;28;20051;-63
2022/09/05 08:24:57;;;;;;;17.00;11.75;;;;;;;;;;5051423;28;20032;-63
2022/09/05 08:27:30;;;;;;;18.45;12.48;;;;;;;;;;5051112;28;20543;-51
2022/09/05 08:30:06;;;;;;;21.17;15.77;;;;;;;;;;5055177;28;20045;-50
2022/09/05 08:32:44;;;;;;;19.13;13.25;;;;;;;;;;5054708;28;20025;-53
2022/09/05 08:35:16;;;;;;;17.45;12.30;;;;;;;;;;5053831;28;20029;-50
2022/09/05 08:37:43;;;;;;;20.90;15.68;;;;;;;;;;5054513;28;20053;-52
2022/09/05 08:40:22;;;;;;;19.88;15.77;;;;;;;;;;5055358;28;20527;-52
2022/09/05 08:43:01;;;;;;;19.33;12.80;;;;;;;;;;5055309;28;20060;-50
2022/09/05 08:45:38;;;;;;;21.33;13.48;;;;;;;;;;5054730;28;20437;-54
2022/09/05 08:48:22;;;;;;;17.48;12.63;;;;;;;;;;5054803;28;20020;-51
2022/09/05 08:50:59;;;;;;;18.67;12.80;;;;;;;;;;5054547;28;20035;-52
2022/09/05 08:53:28;;;;;;;16.98;12.63;;;;;;;;;;5055318;28;20021;-52
2022/09/05 08:55:54;;;;;;;17.98;12.85;;;;;;;;;;5055556;28;20103;-52
2022/09/05 08:58:39;;;;;;;16.67;12.35;;;;;;;;;;5054614;28;20060;-48
2022/09/05 09:01:14;;;;;;;17.40;12.63;;;;;;;;;;5054157;28;20036;-47
2022/09/05 09:04:00;;;;;;;18.92;12.55;;;;;;;;;;5054145;28;20024;-51
2022/09/05 09:06:42;;;;;;;20.10;12.75;;;;;;;;;;5054355;28;20512;-48
2022/09/05 09:09:26;;;;;;;18.17;13.60;;;;;;;;;;5052231;28;20037;-48
2022/09/05 09:11:54;;;;;;;18.00;12.85;;;;;;;;;;5052757;28;20131;-48
2022/09/05 09:14:34;;;;;;;16.70;12.70;;;;;;;;;;5053930;28;20075;-50
2022/09/05 09:17:03;;;;;;;18.80;13.10;;;;;;;;;;5054060;28;20044;-50
2022/09/05 09:19:48;;;;;;;19.08;13.63;;;;;;;;;;5052004;28;20021;-51
2022/09/05 09:22:20;;;;;;;16.35;12.32;;;;;;;;;;5052430;28;20029;-55
2022/09/05 09:24:48;;;;;;;18.15;13.70;;;;;;;;;;5053554;28;20474;-49
2022/09/05 09:27:30;;;;;;;20.15;13.38;;;;;;;;;;5051566;28;20394;-50
2022/09/05 09:30:02;;;;;;;18.75;12.95;;;;;;;;;;5053071;28;20056;-51
2022/09/05 09:32:30;;;;;;;19.20;12.95;;;;;;;;;;5051222;28;20052;-49
2022/09/05 09:35:19;;;;;;;16.55;12.60;;;;;;;;;;5053345;28;20035;-52
2022/09/05 09:38:04;;;;;;;23.23;13.32;;;;;;;;;;5042808;28;20051;-47
2022/09/05 09:40:39;;;;;;;18.65;12.30;;;;;;;;;;5050125;28;20027;-49
2022/09/05 09:43:13;;;;;;;18.63;12.32;;;;;;;;;;5053249;28;20036;-49
2022/09/05 09:45:42;;;;;;;20.60;13.00;;;;;;;;;;5086207;28;20162;-55
2022/09/05 09:48:08;;;;;;;18.38;12.60;;;;;;;;;;5053638;28;20021;-54
2022/09/05 09:50:34;;;;;;;17.02;12.93;;;;;;;;;;5053080;28;20040;-53
2022/09/05 09:53:11;;;;;;;17.55;12.93;;;;;;;;;;5053356;28;20029;-53
2022/09/05 09:55:42;;;;;;;17.92;13.27;;;;;;;;;;5053123;28;20504;-55
2022/09/05 09:58:15;;;;;;;19.83;13.18;;;;;;;;;;5052995;28;20178;-56
2022/09/05 10:00:50;;;;;;;17.13;12.55;;;;;;;;;;5052892;28;20589;-54
2022/09/05 10:03:34;;;;;;;16.83;12.52;;;;;;;;;;5053114;28;20444;-56
2022/09/05 10:06:19;;;;;;;17.50;12.13;;;;;;;;;;5052580;28;20024;-56
2022/09/05 10:08:54;;;;;;;16.80;12.77;;;;;;;;;;5050284;28;20131;-55
2022/09/05 10:11:39;;;;;;;18.52;13.05;;;;;;;;;;5052420;28;20028;-55
2022/09/05 10:14:14;;;;;;;17.08;13.10;;;;;;;;;;5050464;28;20021;-58
2022/09/05 10:17:00;;;;;;;18.27;13.18;;;;;;;;;;5052405;28;20020;-58
2022/09/05 10:19:42;;;;;;;16.75;12.82;;;;;;;;;;5049814;28;20047;-56
2022/09/05 10:22:27;;;;;;;17.00;12.80;;;;;;;;;;5052838;28;20025;-56
2022/09/05 10:24:59;;;;;;;16.73;12.18;;;;;;;;;;5053062;28;20025;-54
2022/09/05 10:27:31;;;;;;;16.00;12.25;;;;;;;;;;5052972;28;20401;-56
2022/09/05 10:30:08;;;;;;;16.55;12.85;;;;;;;;;;5052772;28;20033;-56
2022/09/05 10:32:53;;;;;;;16.52;12.55;;;;;;;;;;5053049;28;20067;-58
2022/09/05 10:35:24;;;;;;;18.00;13.02;;;;;;;;;;5053241;28;20025;-55
2022/09/05 10:37:57;;;;;;;17.05;12.63;;;;;;;;;;5052212;28;20021;-54
2022/09/05 10:40:25;;;;;;;15.98;12.55;;;;;;;;;;5051907;28;20028;-55
2022/09/05 10:43:00;;;;;;;17.85;12.55;;;;;;;;;;5051081;28;20097;-55
2022/09/05 10:45:27;;;;;;;18.65;13.00;;;;;;;;;;5052064;28;20112;-55
2022/09/05 10:48:12;;;;;;;17.50;12.82;;;;;;;;;;5052276;28;20028;-56
2022/09/05 10:50:48;;;;;;;17.13;12.30;;;;;;;;;;5049551;28;20028;-54
2022/09/05 10:53:19;;;;;;;20.25;12.48;;;;;;;;;;5051673;28;20041;-58
2022/09/05 10:55:57;;;;;;;16.45;13.25;;;;;;;;;;5053428;28;20016;-55
2022/09/05 10:58:32;;;;;;;23.08;13.63;;;;;;;;;;5052359;28;20493;-57
2022/09/05 11:00:58;;;;;;;16.98;12.40;;;;;;;;;;5052953;28;20029;-58
2022/09/05 11:03:29;;;;;;;16.40;12.50;;;;;;;;;;5052282;28;20075;-57
2022/09/05 11:05:59;;;;;;;16.30;12.15;;;;;;;;;;5053046;28;20553;-57
2022/09/05 11:08:25;;;;;;;15.38;11.90;;;;;;;;;;5051225;28;20107;-55
2022/09/05 11:11:02;;;;;;;17.35;11.88;;;;;;;;;;5051525;28;20132;-53
2022/09/05 11:13:44;;;;;;;15.40;11.63;;;;;;;;;;5050291;28;20033;-58
2022/09/05 11:16:13;;;;;;;15.75;12.00;;;;;;;;;;5051496;28;20032;-58
2022/09/05 11:18:42;;;;;;;17.88;12.43;;;;;;;;;;5051618;28;20021;-58
2022/09/05 11:21:12;;;;;;;15.75;12.02;;;;;;;;;;5051619;28;20112;-59
2022/09/05 11:23:41;;;;;;;16.17;12.10;;;;;;;;;;5051556;28;20025;-59
2022/09/05 11:26:14;;;;;;;18.15;12.93;;;;;;;;;;5051918;28;20451;-60
2022/09/05 11:29:00;;;;;;;15.95;12.38;;;;;;;;;;5051916;28;20439;-61
2022/09/05 11:31:45;;;;;;;15.38;12.15;;;;;;;;;;5051541;28;20041;-60
2022/09/05 11:34:14;;;;;;;15.82;12.77;;;;;;;;;;5051701;28;20029;-60
2022/09/05 11:36:48;;;;;;;18.17;12.82;;;;;;;;;;5051876;28;20074;-60
2022/09/05 11:39:14;;;;;;;17.02;12.80;;;;;;;;;;5050248;28;20135;-58
2022/09/05 11:41:40;;;;;;;15.85;12.65;;;;;;;;;;5050091;28;20029;-60
2022/09/05 11:44:22;;;;;;;15.70;12.63;;;;;;;;;;5051196;28;20025;-58
2022/09/05 11:47:06;;;;;;;15.93;12.93;;;;;;;;;;5051684;28;20048;-58
2022/09/05 11:49:33;;;;;;;16.95;13.23;;;;;;;;;;5051713;28;20033;-58
2022/09/05 11:52:20;;;;;;;16.40;13.60;;;;;;;;;;5053065;28;20033;-58
2022/09/05 11:55:03;;;;;;;16.00;12.45;;;;;;;;;;5051621;28;20031;-60
2022/09/05 11:57:48;;;;;;;16.70;12.77;;;;;;;;;;5051505;28;20413;-53
2022/09/05 12:00:29;;;;;;;17.88;13.10;;;;;;;;;;5051214;28;20092;-58
2022/09/05 12:03:18;;;;;;;16.23;12.93;;;;;;;;;;5051770;28;20094;-54
2022/09/05 12:05:51;;;;;;;17.30;12.55;;;;;;;;;;5044857;28;20033;-56
2022/09/05 12:08:19;;;;;;;17.17;12.93;;;29.70;69.50;;;;;;5054891;28;20504;-58
2022/09/05 12:11:01;;;;;;;16.35;12.98;;;;;;;;;;5054916;28;20055;-57
2022/09/05 12:13:36;;;;;;;18.80;13.48;;;;;;;;;;5054949;28;20029;-54
2022/09/05 12:16:23;;;;;;;16.50;13.32;;;;;;;;;;5053704;28;20060;-53
2022/09/05 12:19:15;;;;;;;18.98;14.48;;;37.70;60.40;;;;;;5047488;28;20037;-61
2022/09/05 12:21:53;;;;;;;17.75;13.73;;;38.00;53.40;;;;;;5033693;28;20042;-59
2022/09/05 12:24:22;;;;;;;17.45;13.82;;;;;;;;;;5043578;28;20033;-57
2022/09/05 12:27:07;;;;;;;16.20;13.50;;;;;;;;;;5055225;28;20037;-60
2022/09/05 12:29:41;;;;;;;17.45;13.77;;;;;;;;;;5055497;28;20074;-56
2022/09/05 12:32:24;;;;;;;16.27;12.85;;;39.10;51.00;;;;;;5052343;28;20428;-59
2022/09/05 12:34:55;;;;;;;20.90;13.63;;;38.90;47.20;;;;;;5035277;28;20079;-59
2022/09/05 12:37:21;;;;;;;19.25;14.30;;;38.60;47.30;;;;;;5034954;28;20026;-59
2022/09/05 12:39:53;;;;;;;16.40;13.57;;;38.70;48.40;;;;;;5037578;28;20056;-58
2022/09/05 12:42:51;;;;;;;16.35;13.32;;;37.80;46.90;;;;;;5054127;28;20422;-58
2022/09/05 12:45:40;;;;;;;16.48;14.57;;;38.00;46.80;;;;;;5050443;28;20056;-57
2022/09/05 12:48:28;;;;;;;16.70;13.32;;;38.20;44.80;;;;;;5044734;28;20041;-52
2022/09/05 12:51:01;;;;;;;16.08;13.60;;;38.10;47.30;;;;;;5054818;28;20056;-59
2022/09/05 12:53:53;;;;;;;16.75;13.95;;;37.00;45.50;;;;;;5054861;28;20028;-59
2022/09/05 12:56:38;;;;;;;16.42;13.82;;;38.30;44.80;;;;;;5053551;28;20078;-62
2022/09/05 12:59:14;;;;;;;16.52;13.27;;;37.80;43.50;;;;;;5054529;28;20047;-62
2022/09/05 13:01:42;;;;;;;16.92;13.63;;;36.50;46.00;;;;;;5054446;28;20492;-59
2022/09/05 13:04:23;;;;;;;17.52;14.15;;;;;;;;;;5054518;28;20040;-55
2022/09/05 13:06:55;;;;;;;17.50;14.05;;;;;;;;;;5054313;28;20056;-60
2022/09/05 13:09:21;;;;;;;16.85;13.80;;;;;;;;;;5053589;28;20104;-61
2022/09/05 13:11:47;;;;;;;15.90;13.52;;;;;;;;;;5053728;28;20128;-59
2022/09/05 13:14:21;;;;;;;16.00;13.38;;;37.40;47.50;;;;;;5053834;28;20021;-60
2022/09/05 13:16:49;;;;;;;17.25;13.60;;;39.70;42.30;;;;;;5054080;28;20040;-60
2022/09/05 13:19:49;;;;;;;18.10;13.30;;;39.20;42.70;;;;;;5054002;28;20135;-60
2022/09/05 13:22:17;;;;;;;17.10;14.05;;;;;;;;;;5054343;28;20025;-59
2022/09/05 13:24:50;;;;;;;17.10;13.50;;;38.40;43.60;;;;;;5052945;28;20036;-61
2022/09/05 13:27:30;;;;;;;17.80;13.75;;;40.60;41.00;;;;;;5053690;28;20029;-56
2022/09/05 13:30:10;;;;;;;17.25;13.35;;;40.00;41.70;;;;;;5053528;28;20029;-60
2022/09/05 13:32:50;;;;;;;18.27;13.73;;;39.90;41.40;;;;;;5053593;28;20143;-61
2022/09/05 13:35:20;;;;;;;16.45;13.10;;;;;;;;;;5053725;28;20029;-59
2022/09/05 13:38:05;;;;;;;16.52;12.75;;;38.40;43.30;;;;;;5053339;28;20040;-60
2022/09/05 13:40:44;;;;;;;19.60;13.25;;;38.20;44.00;;;;;;5053439;28;20021;-61
2022/09/05 13:43:28;;;;;;;16.90;13.57;;;39.50;43.90;;;;;;5053574;28;20061;-63
2022/09/05 13:46:05;;;;;;;17.33;15.43;;;;;;;;;;5053601;28;20052;-61
2022/09/05 13:48:55;;;;;;;16.05;13.93;;;;;;;;;;5053351;28;20108;-59
2022/09/05 13:51:32;;;;;;;16.77;13.95;;;;;;;;;;5033290;28;20047;-60
2022/09/05 13:54:08;;;;;;;17.02;14.40;;;;;;;;;;5053158;28;20035;-61
2022/09/05 13:56:40;;;;;;;16.77;13.82;;;;;;;;;;5053008;28;20025;-62
2022/09/05 13:59:12;;;;;;;17.23;14.30;;;;;;;;;;5052712;28;20025;-58
2022/09/05 14:01:46;;;;;;;16.23;13.38;;;;;;;;;;5052710;28;20270;-60
2022/09/05 14:04:27;;;;;;;16.42;13.23;;;;;;;;;;5052876;28;20104;-59
2022/09/05 14:07:13;;;;;;;16.08;13.40;;;;;;;;;;5053143;28;20434;-61
2022/09/05 14:10:01;;;;;;;17.50;13.07;;;;;;;;;;5053033;28;20028;-62
2022/09/05 14:12:28;;;;;;;17.80;14.70;;;;;;;;;;5053686;28;20120;-60
2022/09/05 14:14:57;;;;;;;16.15;12.73;;;;;;;;;;5053110;28;20073;-61
2022/09/05 14:17:36;;;;;;;16.00;13.35;;;;;;;;;;5052503;28;20052;-60
2022/09/05 14:22:49;;;;;;;;;;;;;;;;;;5053543;28;20078;-62
2022/09/05 14:25:23;;;;;;;16.27;13.05;;;;;;;;;;5052566;28;19905;-61
2022/09/05 14:27:50;;;;;;;17.08;13.20;;;;;;;;;;5052281;28;20040;-60
2022/09/05 14:30:36;;;;;;;16.42;12.75;;;;;;;;;;5052740;28;20029;-61
2022/09/05 14:33:15;;;;;;;16.25;12.65;;;;;;;;;;5052866;28;20025;-62
2022/09/05 14:35:53;;;;;;;16.83;13.00;;;;;;;;;;5052852;28;20025;-61
2022/09/05 14:38:38;;;;;;;15.82;12.70;;;;;;;;;;5052193;28;20032;-61
2022/09/05 14:41:07;;;;;;;16.15;12.93;;;;;;;;;;5052922;28;20028;-62
2022/09/05 14:43:42;;;;;;;15.50;12.73;;;;;;;;;;5052713;28;20112;-60
2022/09/05 14:46:26;;;;;;;18.73;13.05;;;;;;;;;;5052369;28;20029;-62
2022/09/05 14:49:11;;;;;;;18.25;12.32;;;;;;;;;;5052158;28;20060;-60
2022/09/05 14:51:38;;;;;;;17.25;12.80;;;;;;;;;;5052189;28;20029;-62
2022/09/05 14:54:11;;;;;;;18.05;13.93;;;;;;;;;;5052179;28;20061;-60
2022/09/05 14:56:40;;;;;;;18.42;15.35;;;;;;;;;;5052138;28;20493;-61
2022/09/05 14:59:09;;;;;;;17.67;15.60;;;;;;;;;;5052488;28;20090;-62